N95 KEGE-KWVI
Flight info
| Callsign | N95 |
|---|---|
| Flight time | 1h 59m |
| Altitude | 40000 |
| Route | BEVVR1 SPRKT TRALP Q136 OAL YOSEM IFIVE JAGWA |
| Aircraft | CL60/M-SBDE1E2E3FGHIJ1J4J5J7M3RWXYZ/LB1V1D1 |
Departure
| Time | 2026-04-30 17:42 |
|---|---|
| Airport | Eagle County Regional Airport (KEGE) |
Arrival
| Time | 2026-04-30 19:42 |
|---|---|
| Airport | Watsonville Municipal Airport (KWVI) |
| Time | Latitude | Longitude | Altitude | Speed | Heading |
|---|---|---|---|---|---|
| 2026-04-30 17:39 | 39.64353 | -106.90009 | 6568 ft | 0 kts | 22° |
| 2026-04-30 17:41 | 39.64426 | -106.90225 | 6570 ft | 59 kts | 262° |
| 2026-04-30 17:42 | 39.64165 | -106.92569 | 6785 ft | 174 kts | 261° |
| 2026-04-30 17:42 | 39.61963 | -106.96536 | 8699 ft | 226 kts | 193° |
| 2026-04-30 17:43 | 39.58706 | -106.97842 | 10286 ft | 268 kts | 206° |
| 2026-04-30 17:44 | 39.53588 | -107.01742 | 11110 ft | 283 kts | 211° |
| 2026-04-30 17:44 | 39.52011 | -107.08073 | 12246 ft | 274 kts | 295° |
| 2026-04-30 17:46 | 39.59245 | -107.16516 | 14910 ft | 302 kts | 322° |
| 2026-04-30 17:47 | 39.62735 | -107.25757 | 17617 ft | 315 kts | 263° |
| 2026-04-30 17:48 | 39.61626 | -107.37142 | 20595 ft | 323 kts | 264° |
| 2026-04-30 17:48 | 39.60775 | -107.45882 | 22962 ft | 330 kts | 264° |
| 2026-04-30 17:49 | 39.59592 | -107.57937 | 26239 ft | 338 kts | 264° |
| 2026-04-30 17:50 | 39.58407 | -107.69879 | 29374 ft | 330 kts | 263° |
| 2026-04-30 17:51 | 39.57537 | -107.78580 | 31318 ft | 320 kts | 263° |
| 2026-04-30 17:52 | 39.56692 | -107.86971 | 33060 ft | 308 kts | 263° |
| 2026-04-30 17:53 | 39.55342 | -108.00252 | 35463 ft | 291 kts | 263° |
| 2026-04-30 17:54 | 39.54293 | -108.10462 | 37287 ft | 284 kts | 264° |
| 2026-04-30 17:55 | 39.53249 | -108.20544 | 38528 ft | 281 kts | 264° |
| 2026-04-30 17:56 | 39.52204 | -108.30545 | 39459 ft | 281 kts | 265° |
| 2026-04-30 17:57 | 39.51409 | -108.38106 | 40017 ft | 283 kts | 265° |
| 2026-04-30 17:58 | 39.50598 | -108.45773 | 40159 ft | 294 kts | 264° |
| 2026-04-30 17:59 | 39.49438 | -108.56647 | 40145 ft | 316 kts | 264° |
| 2026-04-30 18:00 | 39.48187 | -108.68260 | 40158 ft | 335 kts | 263° |
| 2026-04-30 18:00 | 39.47188 | -108.77447 | 40109 ft | 352 kts | 263° |
| 2026-04-30 18:01 | 39.46497 | -108.83759 | 40139 ft | 360 kts | 263° |
| 2026-04-30 18:02 | 39.44292 | -109.03668 | 40093 ft | 382 kts | 264° |
| 2026-04-30 18:04 | 39.41950 | -109.24487 | 40104 ft | 397 kts | 263° |
| 2026-04-30 18:06 | 39.38660 | -109.53149 | 40109 ft | 408 kts | 263° |
| 2026-04-30 18:08 | 39.35665 | -109.78709 | 40111 ft | 412 kts | 263° |
| 2026-04-30 18:10 | 39.32174 | -110.07874 | 40101 ft | 411 kts | 263° |
| 2026-04-30 18:11 | 39.29040 | -110.33535 | 40120 ft | 412 kts | 263° |
| 2026-04-30 18:13 | 39.26763 | -110.51868 | 40135 ft | 412 kts | 263° |
| 2026-04-30 18:14 | 39.24469 | -110.70107 | 40099 ft | 414 kts | 263° |
| 2026-04-30 18:15 | 39.21669 | -110.92041 | 40169 ft | 414 kts | 263° |
| 2026-04-30 18:16 | 39.19775 | -111.06686 | 40156 ft | 414 kts | 263° |
| 2026-04-30 18:17 | 39.18824 | -111.13982 | 40167 ft | 414 kts | 263° |
| 2026-04-30 18:18 | 39.17384 | -111.24958 | 40158 ft | 413 kts | 263° |
| 2026-04-30 18:18 | 39.16420 | -111.32256 | 40125 ft | 412 kts | 263° |
| 2026-04-30 18:19 | 39.15459 | -111.39495 | 40125 ft | 411 kts | 263° |
| 2026-04-30 18:19 | 39.14488 | -111.46783 | 40118 ft | 412 kts | 263° |
| 2026-04-30 18:20 | 39.13515 | -111.54039 | 40125 ft | 412 kts | 263° |
| 2026-04-30 18:20 | 39.12535 | -111.61318 | 40143 ft | 413 kts | 263° |
| 2026-04-30 18:21 | 39.11549 | -111.68600 | 40170 ft | 414 kts | 262° |
| 2026-04-30 18:21 | 39.10557 | -111.75893 | 40178 ft | 412 kts | 263° |
| 2026-04-30 18:22 | 39.09561 | -111.83186 | 40168 ft | 412 kts | 262° |
| 2026-04-30 18:22 | 39.08062 | -111.94084 | 40186 ft | 413 kts | 262° |
| 2026-04-30 18:23 | 39.07052 | -112.01384 | 40176 ft | 415 kts | 262° |
| 2026-04-30 18:23 | 39.06034 | -112.08708 | 40188 ft | 415 kts | 262° |
| 2026-04-30 18:24 | 39.04502 | -112.19658 | 40194 ft | 414 kts | 262° |
| 2026-04-30 18:25 | 39.03482 | -112.26910 | 40166 ft | 414 kts | 262° |
| 2026-04-30 18:25 | 39.01934 | -112.37845 | 40204 ft | 414 kts | 262° |
| 2026-04-30 18:26 | 39.00249 | -112.48760 | 40164 ft | 413 kts | 262° |
| 2026-04-30 18:27 | 38.98547 | -112.59605 | 40164 ft | 413 kts | 261° |
| 2026-04-30 18:28 | 38.96836 | -112.70447 | 40152 ft | 414 kts | 261° |
| 2026-04-30 18:28 | 38.95110 | -112.81325 | 40163 ft | 413 kts | 261° |
| 2026-04-30 18:29 | 38.92794 | -112.95805 | 40173 ft | 415 kts | 261° |
| 2026-04-30 18:30 | 38.90444 | -113.10381 | 40150 ft | 416 kts | 261° |
| 2026-04-30 18:31 | 38.88670 | -113.21310 | 40162 ft | 417 kts | 261° |
| 2026-04-30 18:32 | 38.86876 | -113.32285 | 40165 ft | 418 kts | 261° |
| 2026-04-30 18:33 | 38.85080 | -113.43207 | 40173 ft | 419 kts | 261° |
| 2026-04-30 18:33 | 38.83261 | -113.54198 | 40166 ft | 420 kts | 261° |
| 2026-04-30 18:34 | 38.81438 | -113.65153 | 40164 ft | 421 kts | 261° |
| 2026-04-30 18:35 | 38.80201 | -113.72546 | 40172 ft | 423 kts | 260° |
| 2026-04-30 18:35 | 38.78963 | -113.79913 | 40157 ft | 424 kts | 261° |
| 2026-04-30 18:36 | 38.77090 | -113.91008 | 40178 ft | 425 kts | 261° |
| 2026-04-30 18:37 | 38.75207 | -114.02083 | 40197 ft | 427 kts | 261° |
| 2026-04-30 18:37 | 38.73937 | -114.09521 | 40183 ft | 428 kts | 261° |
| 2026-04-30 18:38 | 38.72658 | -114.16979 | 40182 ft | 428 kts | 261° |
| 2026-04-30 18:38 | 38.71379 | -114.24409 | 40178 ft | 429 kts | 261° |
| 2026-04-30 18:39 | 38.70095 | -114.31834 | 40169 ft | 429 kts | 261° |
| 2026-04-30 18:39 | 38.68801 | -114.39289 | 40169 ft | 430 kts | 261° |
| 2026-04-30 18:40 | 38.67495 | -114.46782 | 40176 ft | 429 kts | 261° |
| 2026-04-30 18:40 | 38.66190 | -114.54243 | 40177 ft | 429 kts | 261° |
| 2026-04-30 18:41 | 38.64885 | -114.61669 | 40176 ft | 431 kts | 261° |
| 2026-04-30 18:41 | 38.63555 | -114.69216 | 40174 ft | 432 kts | 260° |
| 2026-04-30 18:42 | 38.62231 | -114.76691 | 40171 ft | 432 kts | 260° |
| 2026-04-30 18:42 | 38.60234 | -114.87913 | 40177 ft | 432 kts | 260° |
| 2026-04-30 18:45 | 38.52788 | -115.29193 | 40185 ft | 435 kts | 260° |
| 2026-04-30 18:46 | 38.51416 | -115.36697 | 40182 ft | 435 kts | 260° |
| 2026-04-30 18:46 | 38.50036 | -115.44223 | 40189 ft | 435 kts | 260° |
| 2026-04-30 18:47 | 38.48657 | -115.51714 | 40194 ft | 435 kts | 260° |
| 2026-04-30 18:47 | 38.47267 | -115.59238 | 40203 ft | 436 kts | 260° |
| 2026-04-30 18:48 | 38.45875 | -115.66740 | 40189 ft | 437 kts | 259° |
| 2026-04-30 18:48 | 38.44469 | -115.74290 | 40182 ft | 437 kts | 259° |
| 2026-04-30 18:49 | 38.43058 | -115.81834 | 40192 ft | 437 kts | 259° |
| 2026-04-30 18:49 | 38.41649 | -115.89346 | 40187 ft | 438 kts | 259° |
| 2026-04-30 18:50 | 38.40226 | -115.96904 | 40196 ft | 437 kts | 259° |
| 2026-04-30 18:50 | 38.38805 | -116.04418 | 40199 ft | 437 kts | 259° |
| 2026-04-30 18:51 | 38.37380 | -116.11927 | 40194 ft | 437 kts | 259° |
| 2026-04-30 18:51 | 38.35947 | -116.19450 | 40184 ft | 437 kts | 259° |
| 2026-04-30 18:52 | 38.34510 | -116.26971 | 40187 ft | 437 kts | 259° |
| 2026-04-30 18:52 | 38.33043 | -116.34502 | 40180 ft | 438 kts | 258° |
| 2026-04-30 18:53 | 38.31381 | -116.41934 | 40171 ft | 439 kts | 257° |
| 2026-04-30 18:53 | 38.29693 | -116.49423 | 40168 ft | 440 kts | 257° |
| 2026-04-30 18:54 | 38.28000 | -116.56914 | 40175 ft | 440 kts | 257° |
| 2026-04-30 18:54 | 38.26311 | -116.64368 | 40173 ft | 440 kts | 257° |
| 2026-04-30 18:55 | 38.24606 | -116.71869 | 40172 ft | 440 kts | 256° |
| 2026-04-30 18:55 | 38.22048 | -116.83087 | 40176 ft | 440 kts | 256° |
| 2026-04-30 18:56 | 38.19484 | -116.94281 | 40164 ft | 440 kts | 256° |
| 2026-04-30 18:57 | 38.16905 | -117.05487 | 40162 ft | 441 kts | 256° |
| 2026-04-30 18:57 | 38.15178 | -117.12960 | 40167 ft | 441 kts | 256° |
| 2026-04-30 18:58 | 38.12588 | -117.24124 | 40158 ft | 440 kts | 257° |
| 2026-04-30 18:59 | 38.09999 | -117.35330 | 40163 ft | 440 kts | 257° |
| 2026-04-30 19:00 | 38.06536 | -117.50287 | 40157 ft | 440 kts | 257° |
| 2026-04-30 19:01 | 38.03062 | -117.65198 | 40157 ft | 441 kts | 256° |
| 2026-04-30 19:02 | 38.00433 | -117.76422 | 40150 ft | 442 kts | 256° |
| 2026-04-30 19:03 | 37.96909 | -117.91295 | 40154 ft | 441 kts | 256° |
| 2026-04-30 19:04 | 37.93366 | -118.06155 | 40155 ft | 441 kts | 256° |
| 2026-04-30 19:05 | 37.89803 | -118.21000 | 40169 ft | 441 kts | 256° |
| 2026-04-30 19:06 | 37.86222 | -118.35837 | 40184 ft | 441 kts | 256° |
| 2026-04-30 19:06 | 37.83506 | -118.47027 | 40192 ft | 442 kts | 256° |
| 2026-04-30 19:07 | 37.80788 | -118.58172 | 40201 ft | 442 kts | 256° |
| 2026-04-30 19:08 | 37.77153 | -118.72999 | 40209 ft | 442 kts | 256° |
| 2026-04-30 19:09 | 37.74493 | -118.84137 | 40216 ft | 442 kts | 257° |
| 2026-04-30 19:09 | 37.72746 | -118.91574 | 40222 ft | 442 kts | 257° |
| 2026-04-30 19:10 | 37.69234 | -119.06444 | 40210 ft | 442 kts | 257° |
| 2026-04-30 19:11 | 37.66597 | -119.17548 | 40197 ft | 442 kts | 257° |
| 2026-04-30 19:12 | 37.64817 | -119.25014 | 40192 ft | 443 kts | 257° |
| 2026-04-30 19:12 | 37.63047 | -119.32410 | 40210 ft | 443 kts | 257° |
| 2026-04-30 19:13 | 37.59489 | -119.47218 | 40196 ft | 442 kts | 257° |
| 2026-04-30 19:14 | 37.57704 | -119.54611 | 40190 ft | 441 kts | 257° |
| 2026-04-30 19:14 | 37.55913 | -119.62005 | 40181 ft | 441 kts | 257° |
| 2026-04-30 19:15 | 37.54117 | -119.69399 | 40164 ft | 441 kts | 256° |
| 2026-04-30 19:15 | 37.51420 | -119.80461 | 40112 ft | 442 kts | 256° |
| 2026-04-30 19:16 | 37.49614 | -119.87837 | 39888 ft | 438 kts | 257° |
| 2026-04-30 19:16 | 37.47839 | -119.95060 | 38781 ft | 426 kts | 257° |
| 2026-04-30 19:17 | 37.46969 | -119.98592 | 38236 ft | 421 kts | 257° |
| 2026-04-30 19:17 | 37.45258 | -120.05527 | 37153 ft | 412 kts | 257° |
| 2026-04-30 19:17 | 37.44410 | -120.08961 | 36582 ft | 408 kts | 257° |
| 2026-04-30 19:18 | 37.43020 | -120.14578 | 35691 ft | 402 kts | 257° |
| 2026-04-30 19:18 | 37.41911 | -120.19049 | 34973 ft | 397 kts | 257° |
| 2026-04-30 19:18 | 37.41092 | -120.22349 | 34438 ft | 394 kts | 257° |
| 2026-04-30 19:19 | 37.40273 | -120.25639 | 33909 ft | 391 kts | 257° |
| 2026-04-30 19:19 | 37.39471 | -120.28860 | 33407 ft | 388 kts | 257° |
| 2026-04-30 19:19 | 37.37861 | -120.35316 | 32361 ft | 386 kts | 257° |
| 2026-04-30 19:20 | 37.37065 | -120.38502 | 31862 ft | 384 kts | 257° |
| 2026-04-30 19:20 | 37.36262 | -120.41714 | 31348 ft | 383 kts | 257° |
| 2026-04-30 19:20 | 37.34820 | -120.48070 | 30344 ft | 375 kts | 264° |
| 2026-04-30 19:21 | 37.34453 | -120.51297 | 29839 ft | 372 kts | 266° |
| 2026-04-30 19:21 | 37.33732 | -120.57699 | 28866 ft | 367 kts | 266° |
| 2026-04-30 19:22 | 37.32597 | -120.63929 | 27882 ft | 371 kts | 249° |
| 2026-04-30 19:22 | 37.27755 | -120.71606 | 26359 ft | 374 kts | 234° |
| 2026-04-30 19:23 | 37.22722 | -120.78978 | 24875 ft | 368 kts | 233° |
| 2026-04-30 19:24 | 37.19395 | -120.83843 | 23904 ft | 364 kts | 234° |
| 2026-04-30 19:24 | 37.17738 | -120.86264 | 23424 ft | 362 kts | 233° |
| 2026-04-30 19:24 | 37.14484 | -120.91011 | 22475 ft | 358 kts | 233° |
| 2026-04-30 19:25 | 37.09641 | -120.98065 | 21065 ft | 353 kts | 233° |
| 2026-04-30 19:26 | 37.06445 | -121.02711 | 20138 ft | 350 kts | 233° |
| 2026-04-30 19:26 | 37.03293 | -121.07288 | 19223 ft | 347 kts | 233° |
| 2026-04-30 19:26 | 37.01723 | -121.09563 | 18774 ft | 345 kts | 233° |
| 2026-04-30 19:27 | 36.98608 | -121.14077 | 17871 ft | 341 kts | 233° |
| 2026-04-30 19:27 | 36.95499 | -121.18576 | 16898 ft | 339 kts | 232° |
| 2026-04-30 19:28 | 36.93970 | -121.20786 | 16456 ft | 336 kts | 232° |
| 2026-04-30 19:28 | 36.90929 | -121.25177 | 15575 ft | 331 kts | 232° |
| 2026-04-30 19:29 | 36.87915 | -121.29524 | 14674 ft | 328 kts | 232° |
| 2026-04-30 19:29 | 36.86432 | -121.31659 | 14273 ft | 325 kts | 232° |
| 2026-04-30 19:30 | 36.82041 | -121.37978 | 12990 ft | 317 kts | 231° |
| 2026-04-30 19:30 | 36.79172 | -121.42099 | 12160 ft | 313 kts | 231° |
| 2026-04-30 19:31 | 36.76351 | -121.46148 | 11338 ft | 308 kts | 230° |
| 2026-04-30 19:31 | 36.74947 | -121.48162 | 10931 ft | 306 kts | 230° |
| 2026-04-30 19:31 | 36.72163 | -121.52150 | 10118 ft | 301 kts | 230° |
| 2026-04-30 19:32 | 36.70812 | -121.54083 | 9734 ft | 298 kts | 230° |
| 2026-04-30 19:32 | 36.69437 | -121.56051 | 9322 ft | 296 kts | 229° |
| 2026-04-30 19:32 | 36.68106 | -121.57955 | 8936 ft | 292 kts | 230° |
| 2026-04-30 19:32 | 36.67041 | -121.60078 | 8535 ft | 288 kts | 250° |
| 2026-04-30 19:33 | 36.66684 | -121.62505 | 8128 ft | 283 kts | 272° |
| 2026-04-30 19:33 | 36.66887 | -121.64918 | 7719 ft | 280 kts | 279° |
| 2026-04-30 19:33 | 36.67159 | -121.67300 | 7361 ft | 276 kts | 278° |
| 2026-04-30 19:33 | 36.67419 | -121.69632 | 7002 ft | 272 kts | 278° |
| 2026-04-30 19:34 | 36.67679 | -121.71984 | 6639 ft | 268 kts | 278° |
| 2026-04-30 19:34 | 36.67929 | -121.74252 | 6293 ft | 264 kts | 278° |
| 2026-04-30 19:34 | 36.68418 | -121.78722 | 5596 ft | 257 kts | 278° |
| 2026-04-30 19:35 | 36.68660 | -121.80931 | 5260 ft | 252 kts | 279° |
| 2026-04-30 19:35 | 36.69208 | -121.82966 | 4921 ft | 246 kts | 302° |
| 2026-04-30 19:35 | 36.70112 | -121.84723 | 4601 ft | 242 kts | 304° |
| 2026-04-30 19:35 | 36.71016 | -121.86472 | 4272 ft | 238 kts | 304° |
| 2026-04-30 19:36 | 36.71915 | -121.88220 | 3961 ft | 234 kts | 304° |
| 2026-04-30 19:36 | 36.72784 | -121.89911 | 3652 ft | 231 kts | 303° |
| 2026-04-30 19:36 | 36.75175 | -121.92270 | 2936 ft | 221 kts | 350° |
| 2026-04-30 19:37 | 36.76675 | -121.92174 | 2527 ft | 217 kts | 17° |
| 2026-04-30 19:37 | 36.78019 | -121.91328 | 2129 ft | 215 kts | 31° |
| 2026-04-30 19:37 | 36.79252 | -121.90340 | 1966 ft | 200 kts | 32° |
| 2026-04-30 19:37 | 36.80363 | -121.89462 | 1975 ft | 179 kts | 31° |
| 2026-04-30 19:38 | 36.81382 | -121.88661 | 2001 ft | 161 kts | 31° |
| 2026-04-30 19:38 | 36.82272 | -121.87962 | 1986 ft | 140 kts | 31° |
| 2026-04-30 19:38 | 36.83049 | -121.87349 | 1983 ft | 127 kts | 31° |
| 2026-04-30 19:38 | 36.83804 | -121.86755 | 1926 ft | 127 kts | 31° |
| 2026-04-30 19:39 | 36.84542 | -121.86176 | 1960 ft | 126 kts | 31° |
| 2026-04-30 19:39 | 36.85296 | -121.85583 | 1965 ft | 127 kts | 30° |
| 2026-04-30 19:39 | 36.86045 | -121.84995 | 1961 ft | 127 kts | 30° |
| 2026-04-30 19:39 | 36.86805 | -121.84412 | 1902 ft | 130 kts | 28° |
| 2026-04-30 19:40 | 36.87579 | -121.83823 | 1582 ft | 130 kts | 30° |
| 2026-04-30 19:40 | 36.88332 | -121.83223 | 1222 ft | 126 kts | 30° |
| 2026-04-30 19:40 | 36.89075 | -121.82640 | 1073 ft | 125 kts | 31° |
| 2026-04-30 19:40 | 36.89829 | -121.82046 | 976 ft | 128 kts | 30° |
| 2026-04-30 19:41 | 36.90581 | -121.81448 | 810 ft | 129 kts | 31° |
| 2026-04-30 19:41 | 36.91344 | -121.80839 | 638 ft | 130 kts | 31° |
| 2026-04-30 19:41 | 36.92102 | -121.80228 | 413 ft | 132 kts | 32° |
| 2026-04-30 19:41 | 36.92875 | -121.79609 | 202 ft | 130 kts | 32° |
| 2026-04-30 19:42 | 36.93562 | -121.79069 | 173 ft | 88 kts | 33° |
| 2026-04-30 19:42 | 36.93750 | -121.78916 | 172 ft | 14 kts | 38° |
| 2026-04-30 19:42 | 36.93751 | -121.78818 | 172 ft | 9 kts | 136° |
| 2026-04-30 19:42 | 36.93688 | -121.78844 | 172 ft | 11 kts | 213° |
| 2026-04-30 19:43 | 36.93609 | -121.78907 | 172 ft | 14 kts | 211° |
| 2026-04-30 19:43 | 36.93548 | -121.78943 | 172 ft | 5 kts | 148° |
| 2026-04-30 19:43 | 36.93523 | -121.78883 | 172 ft | 8 kts | 115° |
| 2026-04-30 19:44 | 36.93502 | -121.78841 | 172 ft | 4 kts | 123° |
| 2026-04-30 19:44 | 36.93485 | -121.78790 | 172 ft | 8 kts | 91° |
| 2026-04-30 19:44 | 36.93471 | -121.78735 | 172 ft | 3 kts | 192° |
| 2026-04-30 19:44 | 36.93465 | -121.78764 | 172 ft | 2 kts | 269° |
| 2026-04-30 19:45 | 36.93465 | -121.78768 | 172 ft | 0 kts | 268° |